sensor_id;sensor_type;location;lat;lon;timestamp;temperature;humidity
666;DHT22;315;48.738;9.126;2024-01-15T00:00:41;-0.60;99.90
666;DHT22;315;48.738;9.126;2024-01-15T00:03:06;-0.50;99.90
666;DHT22;315;48.738;9.126;2024-01-15T00:05:32;-0.50;99.90
666;DHT22;315;48.738;9.126;2024-01-15T00:07:57;-0.50;99.90
666;DHT22;315;48.738;9.126;2024-01-15T00:10:23;-0.50;99.90
666;DHT22;315;48.738;9.126;2024-01-15T00:12:49;-0.50;99.90
666;DHT22;315;48.738;9.126;2024-01-15T00:15:14;-0.50;99.90
666;DHT22;315;48.738;9.126;2024-01-15T00:17:40;-0.50;99.90
666;DHT22;315;48.738;9.126;2024-01-15T00:20:06;-0.50;99.90
666;DHT22;315;48.738;9.126;2024-01-15T00:22:32;-0.50;99.90
666;DHT22;315;48.738;9.126;2024-01-15T00:24:58;-0.50;99.90
666;DHT22;315;48.738;9.126;2024-01-15T00:27:23;-0.50;99.90
666;DHT22;315;48.738;9.126;2024-01-15T00:29:49;-0.60;99.90
666;DHT22;315;48.738;9.126;2024-01-15T00:32:16;-0.60;99.90
666;DHT22;315;48.738;9.126;2024-01-15T00:34:41;-0.80;99.90
666;DHT22;315;48.738;9.126;2024-01-15T00:37:07;-0.80;99.90
666;DHT22;315;48.738;9.126;2024-01-15T00:39:33;-0.90;99.90
666;DHT22;315;48.738;9.126;2024-01-15T00:41:58;-0.90;99.90
666;DHT22;315;48.738;9.126;2024-01-15T00:44:24;-1.00;99.90
666;DHT22;315;48.738;9.126;2024-01-15T00:46:49;-1.00;99.90
666;DHT22;315;48.738;9.126;2024-01-15T00:49:15;-1.10;99.90
666;DHT22;315;48.738;9.126;2024-01-15T00:51:40;-1.10;99.90
666;DHT22;315;48.738;9.126;2024-01-15T00:54:06;-1.10;99.90
666;DHT22;315;48.738;9.126;2024-01-15T00:56:32;-1.20;99.90
666;DHT22;315;48.738;9.126;2024-01-15T00:58:57;-1.20;99.90
666;DHT22;315;48.738;9.126;2024-01-15T01:01:23;-1.20;99.90
666;DHT22;315;48.738;9.126;2024-01-15T01:03:48;-1.10;99.90
666;DHT22;315;48.738;9.126;2024-01-15T01:06:14;-1.10;99.90
666;DHT22;315;48.738;9.126;2024-01-15T01:08:39;-1.00;99.90
666;DHT22;315;48.738;9.126;2024-01-15T01:11:05;-1.00;99.90
666;DHT22;315;48.738;9.126;2024-01-15T01:13:32;-0.90;99.90
666;DHT22;315;48.738;9.126;2024-01-15T01:15:58;-0.90;99.90
666;DHT22;315;48.738;9.126;2024-01-15T01:18:23;-0.90;99.90
666;DHT22;315;48.738;9.126;2024-01-15T01:20:49;-0.80;99.90
666;DHT22;315;48.738;9.126;2024-01-15T01:23:14;-0.80;99.90
666;DHT22;315;48.738;9.126;2024-01-15T01:25:40;-0.80;99.90
666;DHT22;315;48.738;9.126;2024-01-15T01:28:05;-0.80;99.90
666;DHT22;315;48.738;9.126;2024-01-15T01:30:31;-0.80;99.90
666;DHT22;315;48.738;9.126;2024-01-15T01:32:56;-0.80;99.90
666;DHT22;315;48.738;9.126;2024-01-15T01:35:22;-0.80;99.90
666;DHT22;315;48.738;9.126;2024-01-15T01:37:48;-0.80;99.90
666;DHT22;315;48.738;9.126;2024-01-15T01:40:13;-0.90;99.90
666;DHT22;315;48.738;9.126;2024-01-15T01:42:39;-0.90;99.90
666;DHT22;315;48.738;9.126;2024-01-15T01:45:05;-0.80;99.90
666;DHT22;315;48.738;9.126;2024-01-15T01:47:31;-0.90;99.90
666;DHT22;315;48.738;9.126;2024-01-15T01:49:57;-0.80;99.90
666;DHT22;315;48.738;9.126;2024-01-15T01:52:23;-0.80;99.90
666;DHT22;315;48.738;9.126;2024-01-15T01:54:49;-0.80;99.90
666;DHT22;315;48.738;9.126;2024-01-15T01:57:15;-0.80;99.90
666;DHT22;315;48.738;9.126;2024-01-15T01:59:42;-0.80;99.90
666;DHT22;315;48.738;9.126;2024-01-15T02:02:07;-0.70;99.90
666;DHT22;315;48.738;9.126;2024-01-15T02:04:33;-0.70;99.90
666;DHT22;315;48.738;9.126;2024-01-15T02:06:59;-0.70;99.90
666;DHT22;315;48.738;9.126;2024-01-15T02:09:25;-0.80;99.90
666;DHT22;315;48.738;9.126;2024-01-15T02:11:51;-0.80;99.90
666;DHT22;315;48.738;9.126;2024-01-15T02:14:17;-0.80;99.90
666;DHT22;315;48.738;9.126;2024-01-15T02:16:43;-0.90;99.90
666;DHT22;315;48.738;9.126;2024-01-15T02:19:15;-0.90;99.90
666;DHT22;315;48.738;9.126;2024-01-15T02:21:40;-0.90;99.90
666;DHT22;315;48.738;9.126;2024-01-15T02:24:06;-0.90;99.90
666;DHT22;315;48.738;9.126;2024-01-15T02:26:32;-0.90;99.90
666;DHT22;315;48.738;9.126;2024-01-15T02:29:01;-0.90;99.90
666;DHT22;315;48.738;9.126;2024-01-15T02:31:27;-0.90;99.90
666;DHT22;315;48.738;9.126;2024-01-15T02:33:52;-1.00;99.90
666;DHT22;315;48.738;9.126;2024-01-15T02:36:18;-1.00;99.90
666;DHT22;315;48.738;9.126;2024-01-15T02:38:43;-1.00;99.90
666;DHT22;315;48.738;9.126;2024-01-15T02:41:09;-1.00;99.90
666;DHT22;315;48.738;9.126;2024-01-15T02:43:34;-1.00;99.90
666;DHT22;315;48.738;9.126;2024-01-15T02:46:00;-1.00;99.90
666;DHT22;315;48.738;9.126;2024-01-15T02:48:25;-1.00;99.90
666;DHT22;315;48.738;9.126;2024-01-15T02:50:51;-1.00;99.90
666;DHT22;315;48.738;9.126;2024-01-15T02:53:16;-1.00;99.90
666;DHT22;315;48.738;9.126;2024-01-15T02:55:42;-1.00;99.90
666;DHT22;315;48.738;9.126;2024-01-15T02:58:07;-1.00;99.90
666;DHT22;315;48.738;9.126;2024-01-15T03:00:33;-1.00;99.90
666;DHT22;315;48.738;9.126;2024-01-15T03:02:58;-1.00;99.90
666;DHT22;315;48.738;9.126;2024-01-15T03:05:24;-1.10;99.90
666;DHT22;315;48.738;9.126;2024-01-15T03:07:49;-1.00;99.90
666;DHT22;315;48.738;9.126;2024-01-15T03:10:15;-1.10;99.90
666;DHT22;315;48.738;9.126;2024-01-15T03:12:41;-1.10;99.90
666;DHT22;315;48.738;9.126;2024-01-15T03:15:06;-1.10;99.90
666;DHT22;315;48.738;9.126;2024-01-15T03:17:32;-1.10;99.90
666;DHT22;315;48.738;9.126;2024-01-15T03:19:57;-1.10;99.90
666;DHT22;315;48.738;9.126;2024-01-15T03:22:23;-1.20;99.90
666;DHT22;315;48.738;9.126;2024-01-15T03:24:48;-1.20;99.90
666;DHT22;315;48.738;9.126;2024-01-15T03:27:14;-1.20;99.90
666;DHT22;315;48.738;9.126;2024-01-15T03:29:40;-1.10;99.90
666;DHT22;315;48.738;9.126;2024-01-15T03:32:06;-1.10;99.90
666;DHT22;315;48.738;9.126;2024-01-15T03:34:32;-1.10;99.90
666;DHT22;315;48.738;9.126;2024-01-15T03:36:57;-1.00;99.90
666;DHT22;315;48.738;9.126;2024-01-15T03:39:24;-1.00;99.90
666;DHT22;315;48.738;9.126;2024-01-15T03:41:49;-1.00;99.90
666;DHT22;315;48.738;9.126;2024-01-15T03:44:15;-0.90;99.90
666;DHT22;315;48.738;9.126;2024-01-15T03:46:40;-0.90;99.90
666;DHT22;315;48.738;9.126;2024-01-15T03:49:06;-0.90;99.90
666;DHT22;315;48.738;9.126;2024-01-15T03:51:31;-0.90;99.90
666;DHT22;315;48.738;9.126;2024-01-15T03:53:57;-0.80;99.90
666;DHT22;315;48.738;9.126;2024-01-15T03:56:22;-0.80;99.90
666;DHT22;315;48.738;9.126;2024-01-15T03:58:48;-0.80;99.90
666;DHT22;315;48.738;9.126;2024-01-15T04:01:13;-0.80;99.90
666;DHT22;315;48.738;9.126;2024-01-15T04:03:39;-0.70;99.90
666;DHT22;315;48.738;9.126;2024-01-15T04:06:04;-0.70;99.90
666;DHT22;315;48.738;9.126;2024-01-15T04:08:30;-0.70;99.90
666;DHT22;315;48.738;9.126;2024-01-15T04:10:56;-0.60;99.90
666;DHT22;315;48.738;9.126;2024-01-15T04:13:21;-0.60;99.90
666;DHT22;315;48.738;9.126;2024-01-15T04:15:47;-0.50;99.90
666;DHT22;315;48.738;9.126;2024-01-15T04:18:13;-0.50;99.90
666;DHT22;315;48.738;9.126;2024-01-15T04:20:38;-0.40;99.90
666;DHT22;315;48.738;9.126;2024-01-15T04:23:04;-0.40;99.90
666;DHT22;315;48.738;9.126;2024-01-15T04:25:30;-0.30;99.90
666;DHT22;315;48.738;9.126;2024-01-15T04:27:55;-0.30;99.90
666;DHT22;315;48.738;9.126;2024-01-15T04:30:21;-0.20;99.90
666;DHT22;315;48.738;9.126;2024-01-15T04:32:46;-0.20;99.90
666;DHT22;315;48.738;9.126;2024-01-15T04:35:12;-0.20;99.90
666;DHT22;315;48.738;9.126;2024-01-15T04:37:38;-0.20;99.90
666;DHT22;315;48.738;9.126;2024-01-15T04:40:05;-0.20;99.90
666;DHT22;315;48.738;9.126;2024-01-15T04:42:30;-0.10;99.90
666;DHT22;315;48.738;9.126;2024-01-15T04:44:56;-0.10;99.90
666;DHT22;315;48.738;9.126;2024-01-15T04:47:21;-0.10;99.90
666;DHT22;315;48.738;9.126;2024-01-15T04:49:47;-0.10;99.90
666;DHT22;315;48.738;9.126;2024-01-15T04:52:14;-0.10;99.90
666;DHT22;315;48.738;9.126;2024-01-15T04:54:40;-0.10;99.90
666;DHT22;315;48.738;9.126;2024-01-15T04:57:05;-0.10;99.90
666;DHT22;315;48.738;9.126;2024-01-15T04:59:31;-0.10;99.90
666;DHT22;315;48.738;9.126;2024-01-15T05:01:56;-0.10;99.90
666;DHT22;315;48.738;9.126;2024-01-15T05:04:22;-0.10;99.90
666;DHT22;315;48.738;9.126;2024-01-15T05:06:49;-0.10;99.90
666;DHT22;315;48.738;9.126;2024-01-15T05:09:15;-0.10;99.90
666;DHT22;315;48.738;9.126;2024-01-15T05:11:40;-0.10;99.90
666;DHT22;315;48.738;9.126;2024-01-15T05:14:06;-0.10;99.90
666;DHT22;315;48.738;9.126;2024-01-15T05:16:31;-0.10;99.90
666;DHT22;315;48.738;9.126;2024-01-15T05:18:57;-0.10;99.90
666;DHT22;315;48.738;9.126;2024-01-15T05:21:22;-0.10;99.90
666;DHT22;315;48.738;9.126;2024-01-15T05:23:48;-0.10;99.90
666;DHT22;315;48.738;9.126;2024-01-15T05:26:13;-0.10;99.90
666;DHT22;315;48.738;9.126;2024-01-15T05:28:41;-0.10;99.90
666;DHT22;315;48.738;9.126;2024-01-15T05:31:08;-0.10;99.90
666;DHT22;315;48.738;9.126;2024-01-15T05:33:33;-0.10;99.90
666;DHT22;315;48.738;9.126;2024-01-15T05:35:59;0.00;99.90
666;DHT22;315;48.738;9.126;2024-01-15T05:38:24;-0.10;99.90
666;DHT22;315;48.738;9.126;2024-01-15T05:40:50;-0.10;99.90
666;DHT22;315;48.738;9.126;2024-01-15T05:43:15;-0.10;99.90
666;DHT22;315;48.738;9.126;2024-01-15T05:45:43;0.00;99.90
666;DHT22;315;48.738;9.126;2024-01-15T05:48:10;0.00;99.90
666;DHT22;315;48.738;9.126;2024-01-15T05:50:35;0.00;99.90
666;DHT22;315;48.738;9.126;2024-01-15T05:53:01;-0.10;99.90
666;DHT22;315;48.738;9.126;2024-01-15T05:55:28;0.00;99.90
666;DHT22;315;48.738;9.126;2024-01-15T05:57:53;0.00;99.90
666;DHT22;315;48.738;9.126;2024-01-15T06:00:19;-0.10;99.90
666;DHT22;315;48.738;9.126;2024-01-15T06:02:44;0.00;99.90
666;DHT22;315;48.738;9.126;2024-01-15T06:05:10;0.00;99.90
666;DHT22;315;48.738;9.126;2024-01-15T06:07:35;0.00;99.90
666;DHT22;315;48.738;9.126;2024-01-15T06:10:02;0.00;99.90
666;DHT22;315;48.738;9.126;2024-01-15T06:12:28;0.00;99.90
666;DHT22;315;48.738;9.126;2024-01-15T06:14:53;0.00;99.90
666;DHT22;315;48.738;9.126;2024-01-15T06:17:19;0.00;99.90
666;DHT22;315;48.738;9.126;2024-01-15T06:19:44;0.00;99.90
666;DHT22;315;48.738;9.126;2024-01-15T06:22:10;0.00;99.90
666;DHT22;315;48.738;9.126;2024-01-15T06:24:35;0.00;99.90
666;DHT22;315;48.738;9.126;2024-01-15T06:27:01;0.00;99.90
666;DHT22;315;48.738;9.126;2024-01-15T06:29:28;0.00;99.90
666;DHT22;315;48.738;9.126;2024-01-15T06:31:53;0.00;99.90
666;DHT22;315;48.738;9.126;2024-01-15T06:34:19;0.00;99.90
666;DHT22;315;48.738;9.126;2024-01-15T06:36:45;0.00;99.90
666;DHT22;315;48.738;9.126;2024-01-15T06:39:10;0.00;99.90
666;DHT22;315;48.738;9.126;2024-01-15T06:41:36;0.00;99.90
666;DHT22;315;48.738;9.126;2024-01-15T06:44:11;0.00;99.90
666;DHT22;315;48.738;9.126;2024-01-15T06:46:42;0.00;99.90
666;DHT22;315;48.738;9.126;2024-01-15T06:49:08;0.00;99.90
666;DHT22;315;48.738;9.126;2024-01-15T06:51:33;0.00;99.90
666;DHT22;315;48.738;9.126;2024-01-15T06:53:59;0.00;99.90
666;DHT22;315;48.738;9.126;2024-01-15T06:56:24;0.00;99.90
666;DHT22;315;48.738;9.126;2024-01-15T06:58:49;0.00;99.90
666;DHT22;315;48.738;9.126;2024-01-15T07:01:15;0.10;99.90
666;DHT22;315;48.738;9.126;2024-01-15T07:03:41;0.10;99.90
666;DHT22;315;48.738;9.126;2024-01-15T07:06:06;0.10;99.90
666;DHT22;315;48.738;9.126;2024-01-15T07:08:32;0.10;99.90
666;DHT22;315;48.738;9.126;2024-01-15T07:10:57;0.10;99.90
666;DHT22;315;48.738;9.126;2024-01-15T07:13:22;0.10;99.90
666;DHT22;315;48.738;9.126;2024-01-15T07:15:48;0.10;99.90
666;DHT22;315;48.738;9.126;2024-01-15T07:18:14;0.10;99.90
666;DHT22;315;48.738;9.126;2024-01-15T07:20:39;0.10;99.90
666;DHT22;315;48.738;9.126;2024-01-15T07:23:05;0.10;99.90
666;DHT22;315;48.738;9.126;2024-01-15T07:25:30;0.10;99.90
666;DHT22;315;48.738;9.126;2024-01-15T07:27:56;0.10;99.90
666;DHT22;315;48.738;9.126;2024-01-15T07:30:21;0.10;99.90
666;DHT22;315;48.738;9.126;2024-01-15T07:32:47;0.10;99.90
666;DHT22;315;48.738;9.126;2024-01-15T07:35:14;0.10;99.90
666;DHT22;315;48.738;9.126;2024-01-15T07:37:40;0.10;99.90
666;DHT22;315;48.738;9.126;2024-01-15T07:40:06;0.10;99.90
666;DHT22;315;48.738;9.126;2024-01-15T07:42:34;0.10;99.90
666;DHT22;315;48.738;9.126;2024-01-15T07:44:59;0.20;99.90
666;DHT22;315;48.738;9.126;2024-01-15T07:47:26;0.20;99.90
666;DHT22;315;48.738;9.126;2024-01-15T07:49:52;0.20;99.90
666;DHT22;315;48.738;9.126;2024-01-15T07:52:18;0.20;99.90
666;DHT22;315;48.738;9.126;2024-01-15T07:54:43;0.20;99.90
666;DHT22;315;48.738;9.126;2024-01-15T07:57:10;0.30;99.90
666;DHT22;315;48.738;9.126;2024-01-15T07:59:35;0.30;99.90
666;DHT22;315;48.738;9.126;2024-01-15T08:02:01;0.30;99.90
666;DHT22;315;48.738;9.126;2024-01-15T08:04:26;0.40;99.90
666;DHT22;315;48.738;9.126;2024-01-15T08:06:52;0.40;99.90
666;DHT22;315;48.738;9.126;2024-01-15T08:09:18;0.40;99.90
666;DHT22;315;48.738;9.126;2024-01-15T08:11:44;0.50;99.90
666;DHT22;315;48.738;9.126;2024-01-15T08:14:10;0.50;99.90
666;DHT22;315;48.738;9.126;2024-01-15T08:16:36;0.50;99.90
666;DHT22;315;48.738;9.126;2024-01-15T08:19:02;0.50;99.90
666;DHT22;315;48.738;9.126;2024-01-15T08:21:28;0.40;99.90
666;DHT22;315;48.738;9.126;2024-01-15T08:23:56;0.50;99.90
666;DHT22;315;48.738;9.126;2024-01-15T08:26:22;0.50;99.90
666;DHT22;315;48.738;9.126;2024-01-15T08:28:48;0.50;99.90
666;DHT22;315;48.738;9.126;2024-01-15T08:31:13;0.60;99.90
666;DHT22;315;48.738;9.126;2024-01-15T08:33:39;0.60;99.90
666;DHT22;315;48.738;9.126;2024-01-15T08:36:04;0.60;99.90
666;DHT22;315;48.738;9.126;2024-01-15T08:38:31;0.70;99.90
666;DHT22;315;48.738;9.126;2024-01-15T08:40:56;0.70;99.90
666;DHT22;315;48.738;9.126;2024-01-15T08:43:24;0.70;99.90
666;DHT22;315;48.738;9.126;2024-01-15T08:45:49;0.80;99.90
666;DHT22;315;48.738;9.126;2024-01-15T08:48:16;0.90;99.90
666;DHT22;315;48.738;9.126;2024-01-15T08:50:42;1.00;99.90
666;DHT22;315;48.738;9.126;2024-01-15T08:53:07;1.10;99.90
666;DHT22;315;48.738;9.126;2024-01-15T08:55:33;1.20;99.90
666;DHT22;315;48.738;9.126;2024-01-15T08:57:59;1.20;99.90
666;DHT22;315;48.738;9.126;2024-01-15T09:00:24;1.20;99.90
666;DHT22;315;48.738;9.126;2024-01-15T09:02:50;1.20;99.90
666;DHT22;315;48.738;9.126;2024-01-15T09:05:15;1.20;99.90
666;DHT22;315;48.738;9.126;2024-01-15T09:07:41;1.30;99.90
666;DHT22;315;48.738;9.126;2024-01-15T09:10:06;1.30;99.90
666;DHT22;315;48.738;9.126;2024-01-15T09:12:32;1.30;99.90
666;DHT22;315;48.738;9.126;2024-01-15T09:14:58;1.30;99.90
666;DHT22;315;48.738;9.126;2024-01-15T09:17:23;1.30;99.90
666;DHT22;315;48.738;9.126;2024-01-15T09:19:49;1.40;99.90
666;DHT22;315;48.738;9.126;2024-01-15T09:22:15;1.40;99.90
666;DHT22;315;48.738;9.126;2024-01-15T09:24:44;1.40;99.90
666;DHT22;315;48.738;9.126;2024-01-15T09:27:09;1.50;99.90
666;DHT22;315;48.738;9.126;2024-01-15T09:29:35;1.40;99.90
666;DHT22;315;48.738;9.126;2024-01-15T09:32:03;1.40;99.90
666;DHT22;315;48.738;9.126;2024-01-15T09:34:29;1.40;99.90
666;DHT22;315;48.738;9.126;2024-01-15T09:36:55;1.50;99.90
666;DHT22;315;48.738;9.126;2024-01-15T09:39:20;1.50;99.90
666;DHT22;315;48.738;9.126;2024-01-15T09:41:47;1.50;99.90
666;DHT22;315;48.738;9.126;2024-01-15T09:44:14;1.60;99.90
666;DHT22;315;48.738;9.126;2024-01-15T09:46:40;1.60;99.90
666;DHT22;315;48.738;9.126;2024-01-15T09:49:06;1.60;99.90
666;DHT22;315;48.738;9.126;2024-01-15T09:51:32;1.60;99.90
666;DHT22;315;48.738;9.126;2024-01-15T09:53:58;1.80;99.90
666;DHT22;315;48.738;9.126;2024-01-15T09:56:24;1.80;99.90
666;DHT22;315;48.738;9.126;2024-01-15T09:58:50;1.80;99.90
666;DHT22;315;48.738;9.126;2024-01-15T10:01:20;1.80;99.90
666;DHT22;315;48.738;9.126;2024-01-15T10:03:46;1.80;99.90
666;DHT22;315;48.738;9.126;2024-01-15T10:06:15;1.70;99.90
666;DHT22;315;48.738;9.126;2024-01-15T10:08:44;1.80;99.90
666;DHT22;315;48.738;9.126;2024-01-15T10:11:11;1.80;99.90
666;DHT22;315;48.738;9.126;2024-01-15T10:13:37;1.80;99.90
666;DHT22;315;48.738;9.126;2024-01-15T10:16:03;1.90;99.90
666;DHT22;315;48.738;9.126;2024-01-15T10:18:29;1.80;99.90
666;DHT22;315;48.738;9.126;2024-01-15T10:20:55;1.80;99.90
666;DHT22;315;48.738;9.126;2024-01-15T10:23:23;1.90;99.90
666;DHT22;315;48.738;9.126;2024-01-15T10:25:48;1.90;99.90
666;DHT22;315;48.738;9.126;2024-01-15T10:28:14;1.90;99.90
666;DHT22;315;48.738;9.126;2024-01-15T10:30:40;1.80;99.90
666;DHT22;315;48.738;9.126;2024-01-15T10:33:05;1.80;99.90
666;DHT22;315;48.738;9.126;2024-01-15T10:35:32;1.80;99.90
666;DHT22;315;48.738;9.126;2024-01-15T10:37:59;1.80;99.90
666;DHT22;315;48.738;9.126;2024-01-15T10:40:25;1.90;99.90
666;DHT22;315;48.738;9.126;2024-01-15T10:42:51;1.90;99.90
666;DHT22;315;48.738;9.126;2024-01-15T10:45:17;1.90;99.90
666;DHT22;315;48.738;9.126;2024-01-15T10:47:43;2.00;99.90
666;DHT22;315;48.738;9.126;2024-01-15T10:50:09;1.90;99.90
666;DHT22;315;48.738;9.126;2024-01-15T10:52:36;2.00;99.90
666;DHT22;315;48.738;9.126;2024-01-15T10:55:03;1.90;99.90
666;DHT22;315;48.738;9.126;2024-01-15T10:57:30;1.90;99.90
666;DHT22;315;48.738;9.126;2024-01-15T10:59:55;2.00;99.90
666;DHT22;315;48.738;9.126;2024-01-15T11:02:21;2.00;99.90
666;DHT22;315;48.738;9.126;2024-01-15T11:04:47;2.00;99.90
666;DHT22;315;48.738;9.126;2024-01-15T11:07:13;2.10;99.90
666;DHT22;315;48.738;9.126;2024-01-15T11:09:39;2.10;99.90
666;DHT22;315;48.738;9.126;2024-01-15T11:12:10;2.10;99.90
666;DHT22;315;48.738;9.126;2024-01-15T11:14:41;2.00;99.90
666;DHT22;315;48.738;9.126;2024-01-15T11:17:10;2.00;99.90
666;DHT22;315;48.738;9.126;2024-01-15T11:19:48;1.90;99.90
666;DHT22;315;48.738;9.126;2024-01-15T11:25:18;1.80;99.90
666;DHT22;315;48.738;9.126;2024-01-15T11:27:51;1.90;99.90
666;DHT22;315;48.738;9.126;2024-01-15T11:30:17;1.90;99.90
666;DHT22;315;48.738;9.126;2024-01-15T11:32:43;2.00;99.90
666;DHT22;315;48.738;9.126;2024-01-15T11:35:12;2.00;99.90
666;DHT22;315;48.738;9.126;2024-01-15T11:40:41;1.90;99.90
666;DHT22;315;48.738;9.126;2024-01-15T11:43:08;1.90;99.90
666;DHT22;315;48.738;9.126;2024-01-15T11:45:35;1.80;99.90
666;DHT22;315;48.738;9.126;2024-01-15T11:48:11;1.70;99.90
666;DHT22;315;48.738;9.126;2024-01-15T11:50:46;1.70;99.90
666;DHT22;315;48.738;9.126;2024-01-15T11:53:32;1.70;99.90
666;DHT22;315;48.738;9.126;2024-01-15T11:55:59;1.70;99.90
666;DHT22;315;48.738;9.126;2024-01-15T11:58:26;1.70;99.90
666;DHT22;315;48.738;9.126;2024-01-15T12:00:52;1.60;99.90
666;DHT22;315;48.738;9.126;2024-01-15T12:03:21;1.60;99.90
666;DHT22;315;48.738;9.126;2024-01-15T12:05:47;1.60;99.90
666;DHT22;315;48.738;9.126;2024-01-15T12:08:12;1.60;99.90
666;DHT22;315;48.738;9.126;2024-01-15T12:10:39;1.60;99.90
666;DHT22;315;48.738;9.126;2024-01-15T12:13:13;1.70;99.90
666;DHT22;315;48.738;9.126;2024-01-15T12:15:39;1.60;99.90
666;DHT22;315;48.738;9.126;2024-01-15T12:18:08;1.50;99.90
666;DHT22;315;48.738;9.126;2024-01-15T12:20:33;1.40;99.90
666;DHT22;315;48.738;9.126;2024-01-15T12:23:02;1.30;99.90
666;DHT22;315;48.738;9.126;2024-01-15T12:25:35;1.20;99.90
666;DHT22;315;48.738;9.126;2024-01-15T12:28:01;1.20;99.90
666;DHT22;315;48.738;9.126;2024-01-15T12:30:28;1.10;99.90
666;DHT22;315;48.738;9.126;2024-01-15T12:32:54;1.10;99.90
666;DHT22;315;48.738;9.126;2024-01-15T12:35:20;1.00;99.90
666;DHT22;315;48.738;9.126;2024-01-15T12:37:45;0.90;99.90
666;DHT22;315;48.738;9.126;2024-01-15T12:40:12;0.90;99.90
666;DHT22;315;48.738;9.126;2024-01-15T12:42:41;0.90;99.90
666;DHT22;315;48.738;9.126;2024-01-15T12:45:09;0.90;99.90
666;DHT22;315;48.738;9.126;2024-01-15T12:47:35;0.90;99.90
666;DHT22;315;48.738;9.126;2024-01-15T12:50:01;0.90;99.90
666;DHT22;315;48.738;9.126;2024-01-15T12:52:28;0.90;99.90
666;DHT22;315;48.738;9.126;2024-01-15T12:54:53;0.90;99.90
666;DHT22;315;48.738;9.126;2024-01-15T12:57:19;0.90;99.90
666;DHT22;315;48.738;9.126;2024-01-15T12:59:45;1.00;99.90
666;DHT22;315;48.738;9.126;2024-01-15T13:02:14;1.10;99.90
666;DHT22;315;48.738;9.126;2024-01-15T13:04:39;1.10;99.90
666;DHT22;315;48.738;9.126;2024-01-15T13:07:06;1.10;99.90
666;DHT22;315;48.738;9.126;2024-01-15T13:09:32;1.10;99.90
666;DHT22;315;48.738;9.126;2024-01-15T13:11:58;1.20;99.90
666;DHT22;315;48.738;9.126;2024-01-15T13:14:23;1.20;99.90
666;DHT22;315;48.738;9.126;2024-01-15T13:16:49;1.20;99.90
666;DHT22;315;48.738;9.126;2024-01-15T13:19:15;1.20;99.90
666;DHT22;315;48.738;9.126;2024-01-15T13:21:40;1.20;99.90
666;DHT22;315;48.738;9.126;2024-01-15T13:24:06;1.20;99.90
666;DHT22;315;48.738;9.126;2024-01-15T13:26:33;1.20;99.90
666;DHT22;315;48.738;9.126;2024-01-15T13:29:05;1.10;99.90
666;DHT22;315;48.738;9.126;2024-01-15T13:31:31;1.10;99.90
666;DHT22;315;48.738;9.126;2024-01-15T13:33:57;1.10;99.90
666;DHT22;315;48.738;9.126;2024-01-15T13:36:24;1.10;99.90
666;DHT22;315;48.738;9.126;2024-01-15T13:38:53;1.20;99.90
666;DHT22;315;48.738;9.126;2024-01-15T13:41:19;1.20;99.90
666;DHT22;315;48.738;9.126;2024-01-15T13:43:49;1.20;99.90
666;DHT22;315;48.738;9.126;2024-01-15T13:46:15;1.20;99.90
666;DHT22;315;48.738;9.126;2024-01-15T13:48:40;1.10;99.90
666;DHT22;315;48.738;9.126;2024-01-15T13:51:06;1.20;99.90
666;DHT22;315;48.738;9.126;2024-01-15T13:53:31;1.20;99.90
666;DHT22;315;48.738;9.126;2024-01-15T13:55:57;1.20;99.90
666;DHT22;315;48.738;9.126;2024-01-15T13:58:22;1.30;99.90
666;DHT22;315;48.738;9.126;2024-01-15T14:00:48;1.30;99.90
666;DHT22;315;48.738;9.126;2024-01-15T14:03:14;1.40;99.90
666;DHT22;315;48.738;9.126;2024-01-15T14:05:40;1.40;99.90
666;DHT22;315;48.738;9.126;2024-01-15T14:08:06;1.50;99.90
666;DHT22;315;48.738;9.126;2024-01-15T14:10:31;1.50;99.90
666;DHT22;315;48.738;9.126;2024-01-15T14:12:56;1.50;99.90
666;DHT22;315;48.738;9.126;2024-01-15T14:15:22;1.50;99.90
666;DHT22;315;48.738;9.126;2024-01-15T14:17:47;1.50;99.90
666;DHT22;315;48.738;9.126;2024-01-15T14:20:13;1.40;99.90
666;DHT22;315;48.738;9.126;2024-01-15T14:22:39;1.30;99.90
666;DHT22;315;48.738;9.126;2024-01-15T14:25:04;1.30;99.90
666;DHT22;315;48.738;9.126;2024-01-15T14:27:30;1.30;99.90
666;DHT22;315;48.738;9.126;2024-01-15T14:29:56;1.20;99.90
666;DHT22;315;48.738;9.126;2024-01-15T14:32:21;1.30;99.90
666;DHT22;315;48.738;9.126;2024-01-15T14:34:47;1.30;99.90
666;DHT22;315;48.738;9.126;2024-01-15T14:37:14;1.30;99.90
666;DHT22;315;48.738;9.126;2024-01-15T14:39:39;1.30;99.90
666;DHT22;315;48.738;9.126;2024-01-15T14:42:05;1.20;99.90
666;DHT22;315;48.738;9.126;2024-01-15T14:44:31;1.10;99.90
666;DHT22;315;48.738;9.126;2024-01-15T14:46:59;1.10;99.90
666;DHT22;315;48.738;9.126;2024-01-15T14:49:24;1.10;99.90
666;DHT22;315;48.738;9.126;2024-01-15T14:51:50;1.10;99.90
666;DHT22;315;48.738;9.126;2024-01-15T14:54:16;1.10;99.90
666;DHT22;315;48.738;9.126;2024-01-15T14:56:41;1.10;99.90
666;DHT22;315;48.738;9.126;2024-01-15T14:59:08;1.00;99.90
666;DHT22;315;48.738;9.126;2024-01-15T15:01:34;1.00;99.90
666;DHT22;315;48.738;9.126;2024-01-15T15:03:59;1.10;99.90
666;DHT22;315;48.738;9.126;2024-01-15T15:06:25;1.10;99.90
666;DHT22;315;48.738;9.126;2024-01-15T15:08:53;1.10;99.90
666;DHT22;315;48.738;9.126;2024-01-15T15:11:20;1.10;99.90
666;DHT22;315;48.738;9.126;2024-01-15T15:13:48;1.10;99.90
666;DHT22;315;48.738;9.126;2024-01-15T15:16:14;1.20;99.90
666;DHT22;315;48.738;9.126;2024-01-15T15:18:40;1.20;99.90
666;DHT22;315;48.738;9.126;2024-01-15T15:21:08;1.20;99.90
666;DHT22;315;48.738;9.126;2024-01-15T15:23:33;1.10;99.90
666;DHT22;315;48.738;9.126;2024-01-15T15:25:59;1.10;99.90
666;DHT22;315;48.738;9.126;2024-01-15T15:28:24;1.00;99.90
666;DHT22;315;48.738;9.126;2024-01-15T15:30:50;1.00;99.90
666;DHT22;315;48.738;9.126;2024-01-15T15:33:16;0.90;99.90
666;DHT22;315;48.738;9.126;2024-01-15T15:35:43;1.00;99.90
666;DHT22;315;48.738;9.126;2024-01-15T15:38:09;0.90;99.90
666;DHT22;315;48.738;9.126;2024-01-15T15:40:34;0.90;99.90
666;DHT22;315;48.738;9.126;2024-01-15T15:43:00;0.90;99.90
666;DHT22;315;48.738;9.126;2024-01-15T15:45:25;0.90;99.90
666;DHT22;315;48.738;9.126;2024-01-15T15:47:51;0.80;99.90
666;DHT22;315;48.738;9.126;2024-01-15T15:50:16;0.70;99.90
666;DHT22;315;48.738;9.126;2024-01-15T15:52:42;0.70;99.90
666;DHT22;315;48.738;9.126;2024-01-15T15:55:07;0.70;99.90
666;DHT22;315;48.738;9.126;2024-01-15T15:57:33;0.70;99.90
666;DHT22;315;48.738;9.126;2024-01-15T15:59:59;0.70;99.90
666;DHT22;315;48.738;9.126;2024-01-15T16:02:24;0.60;99.90
666;DHT22;315;48.738;9.126;2024-01-15T16:04:50;0.60;99.90
666;DHT22;315;48.738;9.126;2024-01-15T16:07:15;0.60;99.90
666;DHT22;315;48.738;9.126;2024-01-15T16:09:41;0.60;99.90
666;DHT22;315;48.738;9.126;2024-01-15T16:12:07;0.50;99.90
666;DHT22;315;48.738;9.126;2024-01-15T16:14:34;0.50;99.90
666;DHT22;315;48.738;9.126;2024-01-15T16:16:59;0.50;99.90
666;DHT22;315;48.738;9.126;2024-01-15T16:19:25;0.50;99.90
666;DHT22;315;48.738;9.126;2024-01-15T16:21:51;0.60;99.90
666;DHT22;315;48.738;9.126;2024-01-15T16:24:16;0.60;99.90
666;DHT22;315;48.738;9.126;2024-01-15T16:26:42;0.50;99.90
666;DHT22;315;48.738;9.126;2024-01-15T16:29:08;0.50;99.90
666;DHT22;315;48.738;9.126;2024-01-15T16:31:34;0.50;99.90
666;DHT22;315;48.738;9.126;2024-01-15T16:33:59;0.50;99.90
666;DHT22;315;48.738;9.126;2024-01-15T16:36:25;0.50;99.90
666;DHT22;315;48.738;9.126;2024-01-15T16:38:51;0.40;99.90
666;DHT22;315;48.738;9.126;2024-01-15T16:41:17;0.40;99.90
666;DHT22;315;48.738;9.126;2024-01-15T16:43:43;0.40;99.90